AirNav   Air Wisconsin Up To $57,000 Bonus
 
 382 users online  

2MA5 Compaq Powdermill Road Heliport
Maynard, Massachusetts, USA

GOING TO MAYNARD?


FAA INFORMATION EFFECTIVE 26 MARCH 2020

Location

FAA Identifier: 2MA5
Lat/Long: 42-25-40.3360N 071-27-27.2260W
42-25.672267N 071-27.453767W
42.4278711,-71.4575628
(estimated)
Elevation: 175 ft. / 53 m (estimated)
Variation: 16W (1980)
From city: 6 miles E of MAYNARD, MA
Time zone: UTC -4 (UTC -5 during Standard Time)
Zip code: 01754

Heliport Operations

Heliport use: Private use. Permission required prior to landing
Activation date: 10/1986
Control tower: no
ARTCC: BOSTON CENTER
FSS: BRIDGEPORT FLIGHT SERVICE STATION
Attendance: UNATNDD
Wind indicator: yes
Segmented circle: no

Heliport Communications

UNICOM: 123.05
WX ASOS at BED (8 nm E): 124.6 (781-274-9733)
WX ASOS at FIT (15 nm NW): 135.175 (978-343-9121)
WX ASOS at OWD (19 nm SE): 119.95 (781-762-4314)

Nearby radio navigation aids

VOR radial/distance  VOR name  Freq  Var
BOSr298/21.2BOSTON VOR/DME112.7016W
LWMr236/24.7LAWRENCE VOR/DME112.5015W
MHTr203/26.7MANCHESTER VOR/DME114.4015W
GDMr119/27.5GARDNER VOR/DME110.6014W
PUTr045/33.1PUTNAM VOR/DME117.4014W

 
NDB name  Hdg/Dist  Freq  Var  ID
MARSHFIELD316/40.036816WIMR .. -- .-.

Heliport Services

Runway Information

Helipad H1

Dimensions: 60 x 24 ft. / 18 x 7 m
Surface: concrete
Traffic pattern: leftleft

Heliport Ownership and Management from official FAA records

Ownership: Privately-owned
Owner: COMPAQ COMP CORP MS2-3/C17
111 POWDERMILL RD
MAYNARD, MA 01754
Phone 978-493-6163
Manager: JOE POZNICK MS2-3/C17
111 POWDERMILL RD
MAYNARD, MA 01754
Phone 978-493-8401

Additional Remarks

FOR CD CTC BOSTON APCH AT 603-594-5554.

Instrument Procedures

There are no published instrument procedures at 2MA5.

Some nearby airports with instrument procedures:

6B6 - Minute Man Air Field (3 nm NW)
KBED - Laurence G Hanscom Field Airport (8 nm E)
KFIT - Fitchburg Municipal Airport (15 nm NW)
KOWD - Norwood Memorial Airport (19 nm SE)
1B6 - Hopedale Industrial Park Airport (19 nm S)
 
Loc | Ops | Rwys | IFR | FBO | Links
Com | Nav | Svcs | Stats | Notes
Area around 2MA5 (Compaq Powdermill Road Heliport)
 
Road maps at: MapQuest Bing Google
 
Aerial photo
No photo
 
Sectional chart

 
Airport distance calculator
Flying to Compaq Powdermill Road Heliport? Find the distance to fly.

From to 2MA5

Sunrise and sunset
Times for 10-Apr-2020
 Local
(UTC-4)
 Zulu
(UTC)
Morning civil twilight05:4309:43
Sunrise06:1210:12
Sunset19:2223:22
Evening civil twilight19:5023:50

Current date and time
Zulu (UTC)  10-Apr-2020 06:47:32
Local (UTC-4)  10-Apr-2020 02:47:32
 
METAR
KBED 
7nm E 
100551Z AUTO 25009KT 10SM CLR 04/M04 A2914 RMK AO2 SLP881 60000 T00441039 10067 20044 58011
KFIT 
15nm NW 
100552Z AUTO 28009G17KT 10SM CLR 03/M06 A2916 RMK AO2 SLP876 T00331056 10056 20033 58009
KOWD 
20nm SE 
100553Z AUTO 27010G18KT 10SM CLR 06/M06 A2917 RMK AO2 SLP878 60000 T00561056 10078 20050 58006
KMQE 
20nm SE 
100551Z AUTO 28022G33KT 03/M06 A2913 RMK AO1 PK WND 27033/0543 SLP877 T00281056 10050 20028 58008
KBOS 
20nm E 
100554Z 26018G25KT 10SM CLR 04/M04 A2915 RMK AO2 PK WND 28029/0522 SLP870 60000 T00441044 10067 20044 58008 $
TAF
KBED 
7nm E 
100524Z 1006/1106 26010G19KT P6SM SKC FM101000 26010G23KT P6SM FEW200 FM102000 29014G27KT P6SM VCSH BKN045 FM110000 30008KT P6SM OVC050
KBOS 
20nm E 
100524Z 1006/1112 26015G30KT P6SM SKC FM102000 28016G28KT P6SM VCSH BKN050 FM102300 30013G24KT P6SM BKN050
NOTAMs
Click for the latest NOTAMs
NOTAMs are issued by the DoD/FAA and will open in a separate window not controlled by AirNav.

 

 
 

Would you like to see your business listed on this page?

 If your business provides an interesting product or service to pilots, flight crews, aircraft, or users of the Compaq Powdermill Road Heliport, you should consider listing it here.  To start the listing process, click on the button below
 
Add a business
 

Other Pages about Compaq Powdermill Road Heliport

Update a link
 
Copyright © AirNav, LLC. All rights reserved. Privacy Policy  Contact